Time;durP1;ratioP1;P1;durP2;ratioP2;P2;SDS_P1;SDS_P2;PMS_P1;PMS_P2;Temp;Humidity;BMP_temperature;BMP_pressure;BME280_temperature;BME280_humidity;BME280_pressure;Samples;Min_cycle;Max_cycle;Signal;HPM_P1;HPM_P2
2023/05/28 00:01:01;;;;;;;17.45;7.30;;;;;;;13.84;58.39;100901.59;10073910;29;20069;-79
2023/05/28 00:06:04;;;;;;;14.32;7.30;;;;;;;13.80;58.54;100895.59;10073926;29;20045;-77
2023/05/28 00:11:07;;;;;;;15.68;6.75;;;;;;;13.67;59.08;100893.09;10089377;29;20041;-79
2023/05/28 00:16:13;;;;;;;12.18;6.70;;;;;;;13.73;58.76;100894.41;10073278;29;20076;-79
2023/05/28 00:21:16;;;;;;;15.82;7.05;;;;;;;13.64;59.24;100892.53;10072496;29;20825;-79
2023/05/28 00:26:19;;;;;;;15.93;8.50;;;;;;;13.53;59.60;100903.38;10071943;29;20121;-79
2023/05/28 00:31:25;;;;;;;15.95;9.57;;;;;;;13.42;60.01;100896.19;10071792;29;20060;-79
2023/05/28 00:36:28;;;;;;;14.30;8.52;;;;;;;13.25;60.19;100895.75;10074169;29;20070;-80
2023/05/28 00:41:35;;;;;;;14.95;8.10;;;;;;;13.04;60.99;100890.31;10070770;29;20049;-79
2023/05/28 00:46:42;;;;;;;14.50;7.55;;;;;;;13.00;61.11;100877.19;10073506;29;20045;-79
2023/05/28 00:51:45;;;;;;;14.02;7.93;;;;;;;12.88;61.59;100881.78;10072429;29;20063;-79
2023/05/28 00:56:48;;;;;;;16.45;7.72;;;;;;;12.72;61.65;100878.63;10082800;29;20053;-80
2023/05/28 01:01:54;;;;;;;20.25;8.30;;;;;;;12.24;63.36;100877.09;10082647;29;20050;-79
2023/05/28 01:06:58;;;;;;;14.95;8.82;;;;;;;12.25;63.57;100875.25;10076256;29;20046;-78
2023/05/28 01:12:03;;;;;;;11.20;7.07;;;;;;;12.16;63.79;100874.16;10070125;29;20417;-78
2023/05/28 01:17:07;;;;;;;12.68;6.20;;;;;;;12.22;63.60;100870.97;10080979;29;20052;-78
2023/05/28 01:22:15;;;;;;;13.52;6.40;;;;;;;12.25;63.16;100881.50;10073192;29;20087;-79
2023/05/28 01:27:20;;;;;;;10.10;6.65;;;;;;;12.26;63.18;100880.53;10073113;29;20056;-79
2023/05/28 01:32:24;;;;;;;8.73;5.82;;;;;;;12.17;63.61;100875.88;10080074;29;20128;-78
2023/05/28 01:37:28;;;;;;;14.90;6.75;;;;;;;12.26;63.95;100868.88;10091792;29;20054;-77
2023/05/28 01:42:35;;;;;;;10.80;6.60;;;;;;;12.24;63.20;100870.84;10101072;29;20049;-78
2023/05/28 01:47:38;;;;;;;14.57;7.13;;;;;;;12.09;63.36;100860.31;10077857;29;20054;-79
2023/05/28 01:52:42;;;;;;;11.63;7.38;;;;;;;11.82;64.42;100858.00;10074375;29;20052;-78
2023/05/28 01:57:47;;;;;;;14.95;8.13;;;;;;;11.78;64.67;100863.75;10080300;29;20041;-78
2023/05/28 02:02:50;;;;;;;14.85;7.47;;;;;;;11.82;64.66;100857.13;10077355;29;20082;-79
2023/05/28 02:07:53;;;;;;;12.85;7.18;;;;;;;11.72;64.92;100857.00;10075186;29;20041;-78
2023/05/28 02:13:00;;;;;;;15.18;7.68;;;;;;;11.62;64.95;100859.53;10072961;29;20379;-79
2023/05/28 02:18:03;;;;;;;21.80;9.82;;;;;;;11.69;64.93;100858.09;10074514;29;20061;-79
2023/05/28 02:23:06;;;;;;;33.60;13.20;;;;;;;11.68;64.74;100866.28;10075469;29;20137;-78
2023/05/28 02:28:11;;;;;;;31.90;12.70;;;;;;;11.67;64.45;100867.28;10079524;29;20036;-79
2023/05/28 02:33:14;;;;;;;14.80;7.63;;;;;;;11.54;64.87;100859.28;10098055;29;20021;-78
2023/05/28 02:38:16;;;;;;;15.30;7.68;;;;;;;11.58;65.21;100860.78;10098796;29;20069;-78
2023/05/28 02:43:21;;;;;;;12.25;6.90;;;;;;;11.60;64.83;100858.84;10085476;29;20042;-79
2023/05/28 02:48:23;;;;;;;17.77;7.53;;;;;;;11.57;64.84;100864.41;10077200;29;20045;-79
2023/05/28 02:53:31;;;;;;;12.75;6.60;;;;;;;11.39;65.57;100860.50;10080464;29;20046;-79
2023/05/28 02:58:36;;;;;;;16.45;8.23;;;;;;;11.31;65.62;100862.91;10070571;29;20046;-77
2023/05/28 03:03:43;;;;;;;20.65;7.90;;;;;;;11.43;65.77;100857.41;10076959;29;20047;-78
2023/05/28 03:08:46;;;;;;;9.88;7.25;;;;;;;11.33;65.05;100866.34;10090271;29;20041;-78
2023/05/28 03:13:51;;;;;;;14.40;7.00;;;;;;;11.32;65.28;100878.06;10083040;29;20037;-78
2023/05/28 03:18:54;;;;;;;17.45;7.40;;;;;;;11.21;65.91;100870.81;10078932;29;20058;-79
2023/05/28 03:23:57;;;;;;;15.10;7.85;;;;;;;11.03;66.63;100878.41;10079804;29;20054;-79
2023/05/28 03:29:05;;;;;;;12.77;6.82;;;;;;;10.77;67.78;100872.28;10074498;29;20102;-78
2023/05/28 03:34:24;;;;;;;10.60;6.38;;;;;;;10.29;69.50;100867.72;10085434;29;20058;-79
2023/05/28 03:39:27;;;;;;;15.38;7.60;;;;;;;10.54;69.69;100861.41;10083429;29;20049;-79
2023/05/28 03:44:32;;;;;;;15.75;7.18;;;;;;;10.58;69.22;100852.13;10084256;29;20050;-79
2023/05/28 03:49:35;;;;;;;11.63;6.97;;;;;;;10.73;68.14;100863.59;10074474;29;20151;-80
2023/05/28 03:54:38;;;;;;;13.70;7.10;;;;;;;10.80;67.83;100867.53;10075911;29;20041;-79
2023/05/28 03:59:42;;;;;;;13.35;6.93;;;;;;;10.78;67.81;100869.50;10073719;29;20050;-80
2023/05/28 04:04:47;;;;;;;13.07;7.05;;;;;;;10.88;67.59;100866.97;10072796;29;20074;-79
2023/05/28 04:09:50;;;;;;;12.27;6.90;;;;;;;10.98;67.31;100869.84;10071497;29;20049;-78
2023/05/28 04:14:55;;;;;;;13.10;6.65;;;;;;;10.96;66.57;100866.41;10070077;29;20125;-78
2023/05/28 04:19:58;;;;;;;12.85;6.55;;;;;;;10.95;66.58;100867.38;10067895;29;20052;-78
2023/05/28 04:25:01;;;;;;;14.48;5.97;;;;;;;10.91;66.63;100863.19;10075324;29;20090;-78
2023/05/28 04:30:08;;;;;;;10.50;6.88;;;;;;;10.96;66.88;100867.25;10076108;29;20053;-79
2023/05/28 04:35:12;;;;;;;14.80;7.53;;;;;;;11.08;66.88;100872.66;10079714;29;20069;-79
2023/05/28 04:40:16;;;;;;;12.20;7.35;;;;;;;10.72;67.21;100880.69;10075261;29;20621;-76
2023/05/28 04:45:20;;;;;;;12.50;7.10;;;;;;;10.67;68.51;100882.88;10076448;29;20065;-79
2023/05/28 04:50:23;;;;;;;13.95;7.43;;;;;;;11.02;67.73;100884.75;10073865;29;20137;-79
2023/05/28 04:55:29;;;;;;;17.33;7.15;;;;;;;11.19;67.35;100876.31;10074824;29;20104;-79
2023/05/28 05:00:34;;;;;;;11.35;6.88;;;;;;;10.99;67.62;100882.28;10070749;29;20046;-78
2023/05/28 05:05:39;;;;;;;10.88;7.18;;;;;;;11.03;67.94;100873.03;10074896;29;20055;-77
2023/05/28 05:10:43;;;;;;;14.75;7.38;;;;;;;11.37;67.85;100887.50;10107393;29;20109;-78
2023/05/28 05:15:47;;;;;;;14.32;7.65;;;;;;;11.32;67.76;100891.50;10085260;29;20069;-78
2023/05/28 05:20:51;;;;;;;11.80;7.78;;;;;;;10.86;71.39;100897.63;10075899;29;20065;-78
2023/05/28 05:25:54;;;;;;;14.93;8.68;;;;;;;11.30;70.09;100897.03;10085197;29;20049;-77
2023/05/28 05:30:58;;;;;;;17.05;9.45;;;;;;;11.17;68.69;100898.91;10091494;29;20057;-78
2023/05/28 05:36:02;;;;;;;20.42;9.93;;;;;;;11.30;70.89;100899.72;10081739;29;20303;-78
2023/05/28 05:41:15;;;;;;;19.10;10.55;;;;;;;11.75;69.44;100904.34;10083240;29;20049;-78
2023/05/28 05:46:30;;;;;;;19.05;10.95;;;;;;;11.87;68.23;100892.63;10083432;29;20042;-80
2023/05/28 05:51:33;;;;;;;17.77;9.90;;;;;;;12.11;68.62;100897.91;10086417;29;20049;-79
2023/05/28 05:56:37;;;;;;;21.40;10.05;;;;;;;12.39;67.94;100888.50;10087056;29;20054;-80
2023/05/28 06:01:41;;;;;;;16.83;9.85;;;;;;;12.73;67.75;100892.00;10086501;29;20502;-79
2023/05/28 06:06:44;;;;;;;15.13;9.57;;;;;;;12.98;67.08;100907.00;10083468;29;20132;-78
2023/05/28 06:11:52;;;;;;;17.80;10.13;;;;;;;13.11;66.68;100900.56;10082171;29;20811;-79
2023/05/28 06:16:57;;;;;;;16.65;8.95;;;;;;;13.04;67.18;100903.78;10077590;29;20049;-78
2023/05/28 06:22:00;;;;;;;9.93;7.15;;;;;;;13.36;66.45;100904.78;10091000;29;20542;-79
2023/05/28 06:27:05;;;;;;;16.25;8.38;;;;;;;13.74;63.76;100895.25;10081141;29;20046;-79
2023/05/28 06:32:10;;;;;;;13.18;7.70;;;;;;;14.27;63.47;100898.69;10089605;29;20187;-78
2023/05/28 06:37:13;;;;;;;13.82;8.25;;;;;;;14.76;61.25;100888.91;10100860;29;20044;-78
2023/05/28 06:42:17;;;;;;;8.38;5.68;;;;;;;15.11;60.50;100887.53;10090605;29;20060;-79
2023/05/28 06:47:57;;;;;;;16.42;8.63;;;;;;;15.51;59.91;100891.09;10085919;29;20462;-78
2023/05/28 06:53:00;;;;;;;15.70;8.52;;;;;;;15.70;59.46;100889.22;10081216;29;20046;-79
2023/05/28 06:58:03;;;;;;;13.48;8.32;;;;;;;16.00;58.49;100894.56;10085965;29;20045;-79
2023/05/28 07:03:28;;;;;;;13.48;7.20;;;;;;;16.32;58.04;100892.34;10083914;29;20053;-78
2023/05/28 07:08:49;;;;;;;10.30;5.72;;;;;;;16.90;57.51;100890.31;10081923;29;20074;-80
2023/05/28 07:13:54;;;;;;;10.93;5.55;;;;;;;17.42;56.62;100894.06;10082046;29;20053;-79
2023/05/28 07:19:00;;;;;;;9.52;5.00;;;;;;;17.87;54.44;100901.16;10080460;29;20391;-79
2023/05/28 07:24:05;;;;;;;9.23;4.53;;;;;;;18.86;52.78;100898.97;10078039;29;20036;-78
2023/05/28 07:29:08;;;;;;;9.13;4.45;;;;;;;20.02;48.27;100901.56;10074176;29;20071;-77
2023/05/28 07:34:13;;;;;;;6.57;4.03;;;;;;;21.16;45.86;100894.81;10078762;29;20121;-78
2023/05/28 07:39:18;;;;;;;6.40;3.72;;;;;;;22.18;42.96;100889.78;10078629;29;20045;-78
2023/05/28 07:44:22;;;;;;;10.70;4.47;;;;;;;22.07;41.78;100892.97;10082648;29;20034;-77
2023/05/28 07:49:27;;;;;;;8.43;3.33;;;;;;;21.89;43.21;100893.34;10093197;29;20081;-78
2023/05/28 07:54:34;;;;;;;9.18;4.00;;;;;;;22.01;40.82;100882.78;10081337;29;20033;-79
2023/05/28 07:59:37;;;;;;;6.25;3.15;;;;;;;21.80;41.42;100886.25;10082738;29;20061;-79
2023/05/28 08:04:42;;;;;;;8.23;3.15;;;;;;;21.81;41.00;100880.59;10078777;29;20093;-78
2023/05/28 08:09:45;;;;;;;6.13;2.72;;;;;;;21.53;38.76;100879.47;10078933;29;20065;-78
2023/05/28 08:14:52;;;;;;;6.55;3.65;;;;;;;21.57;39.32;100867.97;10087013;29;20084;-79
2023/05/28 08:19:57;;;;;;;5.13;2.35;;;;;;;22.02;39.00;100866.22;10082655;29;20057;-78
2023/05/28 08:25:22;;;;;;;7.35;2.63;;;;;;;22.25;36.80;100865.25;10074412;29;20049;-78
2023/05/28 08:30:30;;;;;;;8.88;2.80;;;;;;;22.27;37.46;100865.88;10066688;29;20204;-78
2023/05/28 08:35:42;;;;;;;5.45;3.17;;;;;;;22.77;35.47;100850.56;10083105;29;20651;-76
2023/05/28 08:40:51;;;;;;;5.25;2.47;;;;;;;22.79;36.38;100853.97;10093611;29;20030;-77
2023/05/28 08:45:54;;;;;;;5.88;2.53;;;;;;;22.65;34.76;100857.56;10082580;29;20037;-77
2023/05/28 08:51:08;;;;;;;6.32;2.30;;;;;;;22.61;34.72;100857.09;10074205;29;20062;-79
2023/05/28 08:56:14;;;;;;;4.82;2.42;;;;;;;22.52;33.98;100850.06;10081312;29;20060;-79
2023/05/28 09:01:18;;;;;;;7.50;2.45;;;;;;;22.74;33.45;100840.00;10081134;29;20045;-78
2023/05/28 09:06:49;;;;;;;6.25;2.67;;;;;;;23.37;32.73;100843.81;10077124;29;20071;-78
2023/05/28 09:12:05;;;;;;;6.10;2.95;;;;;;;23.61;32.27;100849.88;10091387;29;20046;-79
2023/05/28 09:17:13;;;;;;;5.53;2.50;;;;;;;23.34;35.21;100841.47;10084029;29;20041;-79
2023/05/28 09:22:20;;;;;;;4.40;2.50;;;;;;;23.96;33.36;100836.25;10088082;29;20108;-79
2023/05/28 09:27:37;;;;;;;5.93;2.78;;;;;;;24.21;33.23;100842.91;10083874;29;20401;-79
2023/05/28 09:32:40;;;;;;;6.47;2.42;;;;;;;24.71;32.36;100838.09;10084801;29;20104;-79
2023/05/28 09:37:45;;;;;;;5.40;2.53;;;;;;;25.12;32.40;100839.91;10085671;29;20041;-79
2023/05/28 09:42:51;;;;;;;4.47;2.70;;;;;;;25.58;32.40;100827.19;10085326;29;20449;-79
2023/05/28 09:47:55;;;;;;;5.50;2.92;;;;;;;26.19;30.74;100821.41;10085165;29;20050;-79
2023/05/28 09:53:00;;;;;;;6.55;2.58;;;;;;;26.32;31.65;100814.16;10080818;29;20140;-80
2023/05/28 09:58:04;;;;;;;6.90;2.63;;;;;;;26.52;31.38;100817.66;10080239;29;20049;-79
2023/05/28 10:03:17;;;;;;;8.60;2.90;;;;;;;27.17;30.40;100820.25;10083736;29;20045;-78
2023/05/28 10:08:24;;;;;;;4.75;2.42;;;;;;;26.86;28.89;100816.44;10096558;29;20065;-78
2023/05/28 10:13:28;;;;;;;5.85;2.92;;;;;;;26.27;31.91;100812.06;10086321;29;20057;-78
2023/05/28 10:18:32;;;;;;;5.30;2.55;;;;;;;25.76;30.70;100816.44;10088554;29;20045;-79
2023/05/28 10:23:37;;;;;;;9.68;2.70;;;;;;;26.43;31.33;100797.78;10085483;29;20072;-77
2023/05/28 10:28:39;;;;;;;6.03;2.58;;;;;;;26.53;31.05;100805.59;10081022;29;20053;-79
2023/05/28 10:33:43;;;;;;;4.80;3.10;;;;;;;26.52;31.39;100814.91;10091091;29;20065;-78
2023/05/28 10:38:59;;;;;;;7.05;2.85;;;;;;;26.43;30.70;100810.72;10096785;29;20053;-79
2023/05/28 10:44:07;;;;;;;5.45;2.65;;;;;;;26.24;30.78;100804.25;10083536;29;20056;-79
2023/05/28 10:49:13;;;;;;;9.05;3.67;;;;;;;26.49;30.78;100805.19;10075814;29;20038;-78
2023/05/28 10:54:22;;;;;;;4.95;3.15;;;;;;;26.81;30.09;100812.63;10064549;29;20037;-77
2023/05/28 10:59:37;;;;;;;4.47;2.60;;;;;;;27.15;29.75;100823.25;10073488;29;20128;-78
2023/05/28 11:04:41;;;;;;;6.15;2.63;;;;;;;27.37;29.69;100817.31;10073598;29;20041;-77
2023/05/28 11:09:48;;;;;;;7.32;3.00;;;;;;;27.82;29.17;100817.16;10076737;29;20109;-77
2023/05/28 11:14:51;;;;;;;6.88;3.28;;;;;;;28.11;29.71;100820.25;10079754;29;20120;-78
2023/05/28 11:19:54;;;;;;;12.23;2.78;;;;;;;27.85;30.01;100800.13;10079400;29;20073;-77
2023/05/28 11:25:00;;;;;;;5.15;3.03;;;;;;;27.17;31.12;100814.75;10079065;29;20053;-78
2023/05/28 11:30:09;;;;;;;7.28;3.17;;;;;;;26.86;31.17;100812.84;10077297;29;20555;-78
2023/05/28 11:35:13;;;;;;;7.22;2.75;;;;;;;27.10;30.92;100805.69;10080000;29;20042;-77
2023/05/28 11:40:18;;;;;;;6.18;2.83;;;;;;;27.04;31.05;100810.19;10079567;29;20061;-79
2023/05/28 11:45:21;;;;;;;6.55;3.33;;;;;;;28.40;29.43;100808.41;10076418;29;20037;-79
2023/05/28 11:50:24;;;;;;;8.43;3.13;;;;;;;29.03;29.73;100803.50;10077448;29;20053;-78
2023/05/28 11:55:29;;;;;;;9.52;3.05;;;;;;;29.55;28.85;100807.31;10078398;29;20056;-77
2023/05/28 12:00:34;;;;;;;6.40;3.10;;;;;;;28.78;29.51;100800.91;10077101;29;20046;-77
2023/05/28 12:05:38;;;;;;;6.00;2.65;;;;;;;28.05;29.97;100800.75;10076273;29;20126;-77
2023/05/28 12:10:43;;;;;;;7.90;3.03;;;;;;;28.53;29.32;100793.63;10077444;29;20054;-78
2023/05/28 12:15:45;;;;;;;6.65;3.33;;;;;;;28.58;27.91;100795.66;10079090;29;20073;-79
2023/05/28 12:20:48;;;;;;;6.20;2.83;;;;;;;28.88;28.68;100788.22;10075437;29;20076;-79
2023/05/28 12:25:53;;;;;;;7.43;2.80;;;;;;;29.10;27.75;100791.28;10084512;29;20141;-78
2023/05/28 12:30:56;;;;;;;6.28;2.83;;;;;;;29.08;27.34;100781.56;10083469;29;20136;-79
2023/05/28 12:36:00;;;;;;;5.50;3.40;;;;;;;29.23;27.18;100783.84;10072006;29;20053;-80
2023/05/28 12:41:05;;;;;;;5.25;3.35;;;;;;;29.68;28.49;100780.53;10053409;29;20056;-78
2023/05/28 12:46:08;;;;;;;4.20;2.80;;;;;;;30.07;26.92;100773.34;10069469;29;20073;-78
2023/05/28 12:51:11;;;;;;;8.18;3.50;;;;;;;30.38;27.16;100774.81;10075941;29;20267;-78
2023/05/28 12:56:17;;;;;;;7.07;4.10;;;;;;;29.91;26.30;100769.41;10074098;29;20038;-79
2023/05/28 13:01:21;;;;;;;4.72;2.83;;;;;;;30.00;26.50;100767.91;10077456;29;20403;-78
2023/05/28 13:06:24;;;;;;;6.90;4.07;;;;;;;29.07;25.48;100763.25;10078968;29;20074;-79
2023/05/28 13:11:28;;;;;;;8.40;3.10;;;;;;;29.22;27.21;100760.03;10080150;29;20044;-79
2023/05/28 13:16:31;;;;;;;6.05;2.78;;;;;;;29.67;26.27;100753.91;10082435;29;20049;-79
2023/05/28 13:21:35;;;;;;;11.98;3.05;;;;;;;29.91;26.49;100755.56;10080596;29;20041;-77
2023/05/28 13:26:39;;;;;;;5.35;2.80;;;;;;;30.14;25.81;100745.53;10081992;29;20045;-77
2023/05/28 13:31:42;;;;;;;5.05;3.47;;;;;;;29.71;25.69;100735.75;10087837;29;20391;-77
2023/05/28 13:36:45;;;;;;;5.45;2.75;;;;;;;29.86;24.73;100740.75;10100064;29;20049;-78
2023/05/28 13:41:51;;;;;;;8.18;3.25;;;;;;;30.07;25.76;100736.50;10084944;29;20063;-78
2023/05/28 13:46:54;;;;;;;7.72;3.17;;;;;;;30.13;25.44;100730.00;10080813;29;20048;-78
2023/05/28 13:51:57;;;;;;;5.90;2.83;;;;;;;30.46;24.34;100732.84;10079666;29;20417;-78
2023/05/28 13:57:02;;;;;;;6.65;2.88;;;;;;;30.01;26.06;100730.03;10080076;29;20533;-79
2023/05/28 14:02:05;;;;;;;7.20;3.20;;;;;;;29.80;27.10;100720.44;10081284;29;20066;-79
2023/05/28 14:07:08;;;;;;;5.68;3.20;;;;;;;30.11;27.58;100712.75;10080390;29;20030;-79
2023/05/28 14:12:13;;;;;;;7.10;3.22;;;;;;;30.18;27.32;100705.19;10096012;29;20057;-78
2023/05/28 14:17:19;;;;;;;7.20;3.30;;;;;;;30.22;27.20;100709.13;10080886;29;20055;-78
2023/05/28 14:22:22;;;;;;;7.70;3.20;;;;;;;30.19;27.43;100699.38;10081719;29;20076;-79
2023/05/28 14:27:26;;;;;;;8.60;3.35;;;;;;;29.28;27.88;100703.75;10081918;29;20040;-77
2023/05/28 14:32:29;;;;;;;10.55;3.50;;;;;;;28.88;28.56;100702.50;10087194;29;20029;-78
2023/05/28 14:37:32;;;;;;;8.15;3.35;;;;;;;28.83;27.61;100710.66;10082833;29;20097;-79
2023/05/28 14:42:36;;;;;;;4.88;3.13;;;;;;;28.59;28.04;100712.53;10063506;29;20141;-79
2023/05/28 14:47:39;;;;;;;7.18;3.17;;;;;;;29.37;27.75;100707.81;10065954;29;20049;-79
2023/05/28 14:52:42;;;;;;;4.97;2.92;;;;;;;29.46;27.62;100703.63;10066090;29;20049;-78
2023/05/28 14:57:47;;;;;;;6.13;3.10;;;;;;;29.98;26.60;100694.50;10064188;29;20044;-78
2023/05/28 15:02:49;;;;;;;8.18;3.40;;;;;;;29.93;27.22;100689.69;10060936;29;20049;-78
2023/05/28 15:07:52;;;;;;;6.68;3.10;;;;;;;29.91;27.42;100704.88;10060736;29;20046;-79
2023/05/28 15:12:57;;;;;;;6.43;3.20;;;;;;;29.85;28.06;100698.41;10049884;29;20053;-80
2023/05/28 15:18:00;;;;;;;8.35;3.42;;;;;;;29.85;27.51;100692.84;10070242;29;20085;-80
2023/05/28 15:23:03;;;;;;;4.07;3.25;;;;;;;30.06;28.36;100696.88;10066109;29;20527;-81
2023/05/28 15:28:08;;;;;;;11.40;4.25;;;;;;;30.12;27.38;100692.28;10065177;29;20411;-80
2023/05/28 15:33:12;;;;;;;7.70;3.63;;;;;;;29.55;27.99;100695.78;10052558;29;20828;-80
2023/05/28 15:38:15;;;;;;;6.18;3.55;;;;;;;29.31;27.72;100683.91;10040251;29;20128;-80
2023/05/28 15:43:20;;;;;;;7.35;3.47;;;;;;;29.49;28.04;100678.22;10049378;29;20072;-80
2023/05/28 15:48:22;;;;;;;9.27;3.55;;;;;;;29.49;29.29;100680.16;10060030;29;20050;-79
2023/05/28 15:53:26;;;;;;;7.85;3.67;;;;;;;29.67;28.30;100673.66;10055920;29;20050;-78
2023/05/28 15:58:31;;;;;;;7.65;3.78;;;;;;;29.73;28.15;100667.13;10055180;29;20209;-81
2023/05/28 16:03:34;;;;;;;6.43;3.50;;;;;;;29.56;28.50;100667.00;10061619;29;20417;-81
2023/05/28 16:08:37;;;;;;;11.02;4.40;;;;;;;29.48;28.46;100664.63;10042124;29;20399;-81
2023/05/28 16:13:43;;;;;;;6.75;3.53;;;;;;;29.42;28.45;100671.97;10067354;29;20038;-79
2023/05/28 16:18:47;;;;;;;7.45;3.88;;;;;;;29.79;28.74;100667.00;10050292;29;20046;-80
2023/05/28 16:23:50;;;;;;;8.95;4.88;;;;;;;30.00;28.10;100668.22;10050573;29;20048;-80
2023/05/28 16:28:55;;;;;;;9.35;4.13;;;;;;;29.78;27.97;100661.69;10066349;29;20375;-80
2023/05/28 16:33:58;;;;;;;6.75;3.72;;;;;;;29.81;27.80;100653.75;10056761;29;20072;-81
2023/05/28 16:39:02;;;;;;;5.68;3.60;;;;;;;31.46;26.05;100661.03;10056973;29;20057;-80
2023/05/28 16:44:07;;;;;;;7.32;3.83;;;;;;;35.27;22.60;100658.22;10064520;29;20053;-80
2023/05/28 16:49:12;;;;;;;5.45;3.75;;;;;;;37.49;21.37;100654.44;10042096;29;20046;-79
2023/05/28 16:54:18;;;;;;;8.02;4.05;;;;;;;37.56;20.86;100654.09;10058752;29;20098;-78
2023/05/28 16:59:22;;;;;;;5.57;3.17;;;;;;;37.99;20.45;100652.16;10056762;29;20065;-79
2023/05/28 17:04:25;;;;;;;5.38;3.40;;;;;;;38.34;20.59;100653.59;10061763;29;20049;-79
2023/05/28 17:09:28;;;;;;;5.00;3.38;;;;;;;38.35;20.46;100652.44;10064278;29;20057;-79
2023/05/28 17:14:33;;;;;;;5.75;3.35;;;;;;;38.00;20.75;100658.59;10062076;29;20069;-81
2023/05/28 17:19:36;;;;;;;5.85;3.20;;;;;;;37.99;20.44;100659.69;10063753;29;20053;-78
2023/05/28 17:24:40;;;;;;;7.53;3.15;;;;;;;37.93;20.51;100656.13;10059990;29;20417;-79
2023/05/28 17:29:45;;;;;;;7.75;3.55;;;;;;;37.29;20.93;100672.34;10049665;29;20045;-79
2023/05/28 17:34:48;;;;;;;11.27;4.10;;;;;;;36.70;21.32;100676.22;10066628;29;20109;-80
2023/05/28 17:39:51;;;;;;;6.28;3.88;;;;;;;34.77;23.13;100680.34;10042670;29;20107;-79
2023/05/28 17:44:55;;;;;;;6.18;3.65;;;;;;;33.83;24.06;100673.19;10036771;29;20126;-78
2023/05/28 17:49:58;;;;;;;7.10;3.45;;;;;;;31.55;25.75;100691.97;10064347;29;20046;-77
2023/05/28 17:55:01;;;;;;;5.72;3.42;;;;;;;27.41;30.26;100700.00;10060658;29;20057;-78
2023/05/28 18:00:11;;;;;;;9.38;3.95;;;;;;;25.51;33.27;100706.22;10061218;29;20565;-78
2023/05/28 18:05:14;;;;;;;8.88;4.25;;;;;;;24.51;34.54;100716.34;10044117;29;20068;-78
2023/05/28 18:10:17;;;;;;;9.57;4.60;;;;;;;23.36;36.28;100718.75;10061347;29;20133;-80
2023/05/28 18:15:24;;;;;;;7.40;4.43;;;;;;;22.80;36.95;100715.13;10066617;29;20925;-80
2023/05/28 18:20:28;;;;;;;10.77;4.72;;;;;;;22.45;38.16;100725.94;10066047;29;20050;-78
2023/05/28 18:25:33;;;;;;;7.90;4.30;;;;;;;22.19;38.51;100730.06;10064172;29;20056;-79
2023/05/28 18:30:38;;;;;;;8.35;4.28;;;;;;;21.91;39.03;100740.00;10064469;29;20049;-76
2023/05/28 18:35:44;;;;;;;11.18;3.97;;;;;;;21.69;40.67;100737.16;10063542;29;20037;-80
2023/05/28 18:40:47;;;;;;;6.47;3.40;;;;;;;21.24;41.60;100752.69;10061025;29;20054;-79
2023/05/28 18:45:51;;;;;;;9.63;3.30;;;;;;;20.82;42.98;100758.66;10056530;29;20129;-79
2023/05/28 18:50:54;;;;;;;11.98;3.90;;;;;;;20.47;43.95;100766.41;10057858;29;20077;-79
2023/05/28 18:55:58;;;;;;;10.35;3.83;;;;;;;20.16;44.61;100780.00;10059929;29;20124;-79
2023/05/28 19:01:02;;;;;;;5.22;3.30;;;;;;;19.85;45.49;100794.44;10055335;29;20053;-79
2023/05/28 19:06:06;;;;;;;9.50;3.47;;;;;;;19.45;46.38;100796.22;10062998;29;20052;-80
2023/05/28 19:11:11;;;;;;;12.23;3.58;;;;;;;19.13;47.47;100799.81;10058551;29;20069;-77
2023/05/28 19:16:15;;;;;;;11.15;3.85;;;;;;;18.94;47.69;100803.72;10057954;29;20057;-79
2023/05/28 19:21:18;;;;;;;8.57;3.85;;;;;;;18.89;48.03;100801.50;10055605;29;20052;-79
2023/05/28 19:26:21;;;;;;;9.57;3.42;;;;;;;18.75;48.64;100815.75;10068833;29;20121;-80
2023/05/28 19:31:27;;;;;;;6.47;3.42;;;;;;;18.56;48.88;100828.59;10058163;29;20034;-80
2023/05/28 19:36:30;;;;;;;9.30;3.63;;;;;;;18.30;49.53;100830.59;10066950;29;20037;-78
2023/05/28 19:41:33;;;;;;;8.98;4.28;;;;;;;17.99;49.95;100846.56;10062103;29;20050;-80
2023/05/28 19:46:40;;;;;;;6.05;3.03;;;;;;;17.88;50.07;100851.25;10049597;29;20077;-81
2023/05/28 19:51:43;;;;;;;7.53;3.25;;;;;;;17.48;50.79;100859.97;10050325;29;20041;-81
2023/05/28 19:56:46;;;;;;;9.60;3.45;;;;;;;17.56;50.94;100860.03;10058922;29;20050;-82
2023/05/28 20:01:50;;;;;;;7.07;3.40;;;;;;;17.50;51.32;100867.94;10057295;29;20049;-81
2023/05/28 20:06:53;;;;;;;7.25;4.13;;;;;;;17.22;51.88;100868.94;10062344;29;20057;-80
2023/05/28 20:11:56;;;;;;;7.38;3.58;;;;;;;17.21;51.97;100890.81;10072354;29;20045;-83
2023/05/28 20:17:01;;;;;;;8.00;3.70;;;;;;;17.06;52.36;100886.88;10064175;29;20045;-81
2023/05/28 20:22:04;;;;;;;7.50;3.45;;;;;;;16.87;53.00;100894.16;10059730;29;20045;-81
2023/05/28 20:27:07;;;;;;;6.72;3.97;;;;;;;16.71;53.31;100894.00;10061245;29;20136;-80
2023/05/28 20:32:12;;;;;;;8.68;3.30;;;;;;;16.62;53.50;100894.88;10056783;29;20121;-82
2023/05/28 20:37:16;;;;;;;12.52;3.92;;;;;;;16.46;53.90;100900.97;10052269;29;20049;-81
2023/05/28 20:42:19;;;;;;;7.50;3.97;;;;;;;16.46;54.26;100907.25;10057947;29;20140;-79
2023/05/28 20:47:23;;;;;;;9.02;4.10;;;;;;;16.36;54.72;100911.84;10062181;29;20412;-80
2023/05/28 20:52:26;;;;;;;7.47;3.75;;;;;;;16.33;55.05;100917.59;10066090;29;20050;-81
2023/05/28 20:57:42;;;;;;;7.30;3.83;;;;;;;16.09;55.45;100926.19;10059522;29;20045;-79
2023/05/28 21:02:46;;;;;;;10.35;4.28;;;;;;;16.14;55.36;100932.88;10052366;29;20045;-80
2023/05/28 21:07:49;;;;;;;11.38;4.25;;;;;;;16.02;55.93;100931.34;10057732;29;20125;-80
2023/05/28 21:12:52;;;;;;;12.55;6.00;;;;;;;16.05;56.15;100927.50;10065648;29;20529;-80
2023/05/28 21:17:57;;;;;;;12.82;4.65;;;;;;;15.94;56.26;100931.22;10059475;29;20042;-81
2023/05/28 21:23:00;;;;;;;8.10;4.00;;;;;;;15.71;56.79;100944.22;10065389;29;20049;-78
2023/05/28 21:28:02;;;;;;;10.73;4.95;;;;;;;15.64;57.28;100946.66;10058983;29;20153;-79
2023/05/28 21:33:07;;;;;;;7.32;4.28;;;;;;;15.54;57.40;100953.94;10061473;29;20049;-78
2023/05/28 21:38:10;;;;;;;8.05;4.10;;;;;;;15.27;57.74;100950.03;10064651;29;20148;-78
2023/05/28 21:43:13;;;;;;;9.10;4.22;;;;;;;15.37;57.97;100943.81;10073615;29;20068;-77
2023/05/28 21:48:17;;;;;;;8.30;5.13;;;;;;;15.28;58.08;100948.22;10069937;29;20082;-80
2023/05/28 21:53:23;;;;;;;9.40;4.72;;;;;;;15.27;58.44;100939.22;10059530;29;20711;-79
2023/05/28 21:58:26;;;;;;;9.75;4.93;;;;;;;15.05;59.04;100950.31;10062586;29;20391;-81
2023/05/28 22:03:30;;;;;;;9.13;4.63;;;;;;;14.95;59.71;100942.19;10058966;29;20073;-80
2023/05/28 22:08:33;;;;;;;7.68;4.70;;;;;;;14.95;59.89;100941.34;10072066;29;20073;-79
2023/05/28 22:13:38;;;;;;;13.00;5.25;;;;;;;14.81;60.19;100942.59;10064796;29;20095;-79
2023/05/28 22:18:42;;;;;;;9.80;5.15;;;;;;;14.68;60.69;100950.94;10061126;29;20429;-80
2023/05/28 22:23:45;;;;;;;13.00;4.78;;;;;;;14.42;61.67;100946.97;10070101;29;20045;-78
2023/05/28 22:28:48;;;;;;;11.75;5.35;;;;;;;14.56;61.61;100952.00;10071846;29;20053;-81
2023/05/28 22:34:02;;;;;;;13.18;5.00;;;;;;;14.39;61.78;100956.22;10071413;29;20071;-80
2023/05/28 22:39:05;;;;;;;9.50;5.05;;;;;;;14.40;61.70;100955.25;10069871;29;20133;-80
2023/05/28 22:44:11;;;;;;;13.30;4.95;;;;;;;14.26;61.78;100959.13;10055822;29;20049;-80
2023/05/28 22:49:15;;;;;;;13.43;5.32;;;;;;;14.15;62.09;100949.25;10055038;29;20093;-82
2023/05/28 22:54:18;;;;;;;14.65;6.25;;;;;;;13.98;62.35;100959.81;10060249;29;20053;-81
2023/05/28 22:59:21;;;;;;;11.43;4.32;;;;;;;13.87;62.36;100961.56;10053754;29;20046;-78
2023/05/28 23:04:26;;;;;;;14.43;4.40;;;;;;;13.75;62.49;100965.34;10058940;29;20042;-82
2023/05/28 23:09:28;;;;;;;11.77;3.92;;;;;;;13.65;62.47;100962.56;10055849;29;20098;-82
2023/05/28 23:14:31;;;;;;;18.40;4.82;;;;;;;13.62;62.58;100968.22;10078966;29;20091;-78